createdAt,value
2018-06-22T00:01:50.302Z,81.40
2018-06-22T00:04:20.973Z,81.60
2018-06-22T00:06:51.663Z,81.40
2018-06-22T00:09:22.972Z,82.00
2018-06-22T00:11:53.670Z,81.30
2018-06-22T00:14:24.370Z,82.00
2018-06-22T00:16:55.088Z,81.60
2018-06-22T00:19:25.761Z,81.50
2018-06-22T00:21:56.421Z,82.10
2018-06-22T00:24:28.149Z,82.00
2018-06-22T00:26:58.826Z,82.20
2018-06-22T00:29:29.521Z,82.00
2018-06-22T00:32:00.213Z,81.90
2018-06-22T00:34:31.017Z,81.40
2018-06-22T00:37:01.742Z,81.30
2018-06-22T00:39:32.377Z,81.40
2018-06-22T00:42:03.073Z,81.50
2018-06-22T00:44:33.737Z,82.30
2018-06-22T00:47:04.489Z,82.20
2018-06-22T00:49:35.522Z,82.30
2018-06-22T00:52:06.205Z,82.70
2018-06-22T00:54:36.897Z,82.70
2018-06-22T00:57:07.631Z,84.00
2018-06-22T00:59:38.367Z,83.90
2018-06-22T01:02:09.073Z,83.60
2018-06-22T01:04:39.745Z,84.00
2018-06-22T01:07:10.465Z,86.00
2018-06-22T01:12:11.512Z,85.90
2018-06-22T01:14:42.748Z,85.60
2018-06-22T01:17:14.889Z,85.80
2018-06-22T01:22:17.958Z,85.30
2018-06-22T01:24:48.866Z,85.30
2018-06-22T01:27:20.803Z,85.80
2018-06-22T01:29:51.836Z,85.20
2018-06-22T01:32:23.660Z,85.80
2018-06-22T01:34:55.156Z,86.40
2018-06-22T01:37:26.456Z,85.80
2018-06-22T01:44:57.796Z,86.40
2018-06-22T01:47:29.733Z,86.00
2018-06-22T01:50:00.677Z,85.80
2018-06-22T01:52:31.642Z,85.80
2018-06-22T01:55:02.662Z,85.80
2018-06-22T01:57:34.548Z,86.70
2018-06-22T02:00:05.763Z,85.80
2018-06-22T02:05:07.759Z,86.60
2018-06-22T02:07:38.766Z,85.80
2018-06-22T02:10:09.682Z,86.00
2018-06-22T02:12:40.563Z,86.10
2018-06-22T02:17:41.611Z,85.90
2018-06-22T02:20:13.387Z,85.90
2018-06-22T02:22:44.326Z,86.90
2018-06-22T02:27:45.823Z,85.90
2018-06-22T02:32:47.174Z,86.50
2018-06-22T02:35:18.323Z,86.60
2018-06-22T02:37:49.905Z,86.00
2018-06-22T02:40:20.911Z,87.00
2018-06-22T02:45:22.290Z,85.80
2018-06-22T02:50:21.478Z,85.40
2018-06-22T02:52:52.426Z,85.30
2018-06-22T02:55:23.383Z,85.80
2018-06-22T02:57:54.815Z,85.90
2018-06-22T03:00:26.414Z,85.30
2018-06-22T03:05:27.435Z,85.70
2018-06-22T03:07:59.785Z,85.80
2018-06-22T03:10:30.697Z,86.70
2018-06-22T03:13:01.357Z,85.10
2018-06-22T03:18:02.581Z,86.40
2018-06-22T03:20:33.230Z,85.70
2018-06-22T03:23:03.993Z,85.20
2018-06-22T03:25:34.657Z,85.30
2018-06-22T03:28:05.330Z,85.20
2018-06-22T03:30:36.221Z,85.20
2018-06-22T03:33:06.987Z,85.20
2018-06-22T03:35:37.753Z,85.20
2018-06-22T03:40:38.338Z,85.30
2018-06-22T03:43:09.182Z,85.10
2018-06-22T03:45:39.871Z,85.20
2018-06-22T03:48:10.549Z,84.80
2018-06-22T03:50:41.185Z,85.00
2018-06-22T03:53:11.913Z,84.60
2018-06-22T03:55:42.605Z,84.50
2018-06-22T03:58:13.294Z,84.40
2018-06-22T04:00:43.946Z,84.20
2018-06-22T04:03:14.633Z,84.30
2018-06-22T04:05:45.277Z,84.60
2018-06-22T04:08:16.293Z,83.40
2018-06-22T04:10:46.945Z,83.40
2018-06-22T04:13:17.658Z,83.30
2018-06-22T04:15:48.321Z,82.90
2018-06-22T04:20:49.276Z,82.90
2018-06-22T04:23:19.993Z,82.70
2018-06-22T04:25:50.701Z,82.60
2018-06-22T04:28:21.358Z,82.80
2018-06-22T04:33:21.889Z,82.50
2018-06-22T04:35:52.542Z,83.20
2018-06-22T04:38:23.169Z,83.10
2018-06-22T04:40:54.123Z,83.00
2018-06-22T04:43:24.788Z,82.70
2018-06-22T04:45:55.500Z,82.80
2018-06-22T04:48:26.565Z,83.10
2018-06-22T04:50:57.249Z,83.20
2018-06-22T04:53:28.033Z,83.20
2018-06-22T04:58:29.415Z,83.60
2018-06-22T05:01:01.190Z,82.60
2018-06-22T05:03:31.900Z,82.60
2018-06-22T05:06:02.735Z,82.40
2018-06-22T05:08:33.397Z,82.40
2018-06-22T05:13:34.301Z,83.40
2018-06-22T05:16:05.002Z,82.50
2018-06-22T05:21:05.742Z,82.70
2018-06-22T05:23:36.786Z,82.20
2018-06-22T05:26:07.889Z,82.20
2018-06-22T05:28:38.569Z,82.20
2018-06-22T05:31:10.580Z,82.00
2018-06-22T05:33:41.600Z,81.90
2018-06-22T05:36:12.573Z,79.10
2018-06-22T05:38:43.553Z,81.30
2018-06-22T05:41:14.540Z,81.60
2018-06-22T05:43:45.552Z,81.40
2018-06-22T05:46:16.990Z,79.00
2018-06-22T05:48:47.963Z,80.70
2018-06-22T05:51:18.991Z,80.10
2018-06-22T05:56:21.176Z,80.00
2018-06-22T05:58:52.526Z,80.20
2018-06-22T06:01:23.353Z,80.00
2018-06-22T06:03:55.750Z,80.00
2018-06-22T06:06:26.691Z,79.80
2018-06-22T06:08:58.051Z,79.30
2018-06-22T06:11:29.301Z,78.80
2018-06-22T06:14:01.501Z,77.80
2018-06-22T06:16:33.335Z,77.80
2018-06-22T06:19:04.949Z,77.90
2018-06-22T06:21:36.991Z,76.90
2018-06-22T06:24:08.250Z,76.80
2018-06-22T06:26:39.597Z,76.60
2018-06-22T06:29:11.698Z,74.30
2018-06-22T06:31:42.639Z,75.80
2018-06-22T06:34:13.677Z,75.50
2018-06-22T06:36:44.678Z,75.10
2018-06-22T06:39:15.947Z,74.60
2018-06-22T06:41:47.344Z,75.30
2018-06-22T06:46:50.574Z,73.80
2018-06-22T06:49:21.718Z,73.50
2018-06-22T06:54:28.049Z,72.20
2018-06-22T06:56:59.739Z,73.40
2018-06-22T06:59:30.768Z,72.80
2018-06-22T07:02:02.967Z,72.30
2018-06-22T07:04:33.953Z,68.70
2018-06-22T07:07:05.008Z,70.80
2018-06-22T07:09:36.057Z,71.80
2018-06-22T07:12:07.128Z,71.50
2018-06-22T07:14:38.200Z,71.10
2018-06-22T07:17:09.194Z,71.40
2018-06-22T07:19:40.383Z,70.20
2018-06-22T07:22:11.833Z,70.30
2018-06-22T07:24:42.858Z,70.60
2018-06-22T07:27:13.877Z,70.00
2018-06-22T07:29:44.875Z,70.50
2018-06-22T07:32:15.999Z,69.90
2018-06-22T07:37:17.276Z,69.50
2018-06-22T07:39:48.269Z,68.60
2018-06-22T07:42:20.094Z,65.60
2018-06-22T07:44:51.746Z,68.60
2018-06-22T07:47:22.817Z,67.60
2018-06-22T07:49:53.955Z,66.40
2018-06-22T07:52:25.640Z,67.80
2018-06-22T07:54:58.022Z,64.80
2018-06-22T07:57:29.156Z,65.20
2018-06-22T08:00:00.125Z,65.70
2018-06-22T08:02:31.361Z,65.80
2018-06-22T08:05:02.363Z,64.70
2018-06-22T08:07:33.928Z,64.60
2018-06-22T08:10:05.014Z,64.40
2018-06-22T08:12:36.312Z,62.90
2018-06-22T08:15:07.828Z,60.30
2018-06-22T08:17:39.879Z,61.00
2018-06-22T08:20:11.280Z,62.00
2018-06-22T08:22:43.020Z,62.50
2018-06-22T08:27:44.391Z,62.10
2018-06-22T08:30:16.432Z,60.70
2018-06-22T08:32:47.470Z,59.20
2018-06-22T08:35:19.081Z,60.50
2018-06-22T08:37:53.317Z,60.00
2018-06-22T08:40:25.226Z,60.10
2018-06-22T08:42:56.883Z,59.00
2018-06-22T08:45:27.966Z,59.60
2018-06-22T08:47:59.970Z,57.00
2018-06-22T08:50:31.892Z,59.10
2018-06-22T08:53:02.905Z,59.40
2018-06-22T08:55:33.957Z,59.50
2018-06-22T08:58:05.905Z,59.60
2018-06-22T09:00:37.777Z,59.70
2018-06-22T09:03:09.196Z,56.50
2018-06-22T09:05:40.729Z,58.60
2018-06-22T09:08:13.282Z,58.60
2018-06-22T09:10:47.165Z,59.00
2018-06-22T09:13:17.966Z,59.40
2018-06-22T09:15:48.960Z,58.30
2018-06-22T09:18:19.674Z,58.30
2018-06-22T09:20:50.394Z,55.90
2018-06-22T09:23:21.238Z,56.30
2018-06-22T09:25:52.162Z,56.80
2018-06-22T09:28:23.064Z,57.20
2018-06-22T09:30:53.915Z,57.40
2018-06-22T09:35:55.498Z,56.40
2018-06-22T09:40:56.615Z,57.00
2018-06-22T09:43:27.625Z,55.50
2018-06-22T09:45:58.426Z,54.30
2018-06-22T09:48:29.665Z,54.90
2018-06-22T09:51:00.404Z,53.90
2018-06-22T09:53:31.780Z,54.60
2018-06-22T09:56:02.558Z,53.60
2018-06-22T09:58:33.271Z,54.90
2018-06-22T10:01:04.330Z,54.90
2018-06-22T10:03:35.128Z,55.50
2018-06-22T10:06:06.265Z,55.50
2018-06-22T10:08:37.023Z,54.50
2018-06-22T10:11:08.103Z,54.20
2018-06-22T10:13:39.685Z,54.10
2018-06-22T10:16:10.617Z,54.10
2018-06-22T10:18:42.977Z,53.60
2018-06-22T10:21:13.771Z,51.20
2018-06-22T10:23:44.567Z,52.00
2018-06-22T10:26:15.378Z,52.70
2018-06-22T10:28:46.493Z,53.40
2018-06-22T10:31:17.199Z,53.80
2018-06-22T10:36:17.924Z,53.10
2018-06-22T10:38:48.883Z,52.90
2018-06-22T10:41:19.814Z,52.90
2018-06-22T10:43:50.758Z,53.10
2018-06-22T10:46:21.665Z,52.20
2018-06-22T10:51:22.530Z,53.10
2018-06-22T10:53:53.326Z,51.60
2018-06-22T10:56:24.381Z,50.60
2018-06-22T10:58:55.240Z,51.10
2018-06-22T11:01:26.038Z,50.80
2018-06-22T11:03:57.322Z,51.20
2018-06-22T11:06:28.725Z,50.70
2018-06-22T11:08:59.789Z,50.10
2018-06-22T11:16:30.537Z,50.20
2018-06-22T11:19:02.395Z,50.50
2018-06-22T11:21:33.212Z,51.10
2018-06-22T11:24:04.315Z,47.90
2018-06-22T11:26:35.095Z,49.60
2018-06-22T11:29:05.870Z,50.00
2018-06-22T11:31:36.707Z,49.70
2018-06-22T11:34:08.507Z,48.70
2018-06-22T11:36:39.454Z,48.80
2018-06-22T11:39:11.987Z,48.30
2018-06-22T11:41:45.570Z,48.90
2018-06-22T11:44:17.496Z,46.30
2018-06-22T11:46:48.460Z,46.50
2018-06-22T11:49:19.230Z,47.10
2018-06-22T11:51:50.051Z,47.40
2018-06-22T11:54:20.859Z,45.10
2018-06-22T11:56:51.635Z,46.00
2018-06-22T11:59:22.357Z,46.30
2018-06-22T12:01:53.871Z,44.60
2018-06-22T12:04:24.680Z,45.20
2018-06-22T12:06:56.174Z,44.80
2018-06-22T12:09:27.553Z,44.20
2018-06-22T12:11:58.370Z,45.00
2018-06-22T12:14:29.502Z,43.30
2018-06-22T12:17:00.477Z,44.00
2018-06-22T12:19:31.577Z,44.30
2018-06-22T12:22:02.322Z,44.90
2018-06-22T12:24:33.257Z,44.70
2018-06-22T12:27:04.147Z,44.20
2018-06-22T12:32:04.841Z,44.40
2018-06-22T12:34:35.790Z,44.50
2018-06-22T12:37:06.512Z,43.30
2018-06-22T12:39:37.426Z,44.30
2018-06-22T12:42:08.186Z,44.20
2018-06-22T12:44:38.928Z,44.40
2018-06-22T12:47:09.683Z,44.30
2018-06-22T12:49:40.732Z,43.60
2018-06-22T12:52:11.490Z,43.60
2018-06-22T12:54:42.311Z,43.60
2018-06-22T12:57:13.017Z,41.70
2018-06-22T12:59:43.807Z,40.30
2018-06-22T13:02:14.574Z,40.00
2018-06-22T13:04:45.571Z,42.00
2018-06-22T13:07:16.338Z,42.40
2018-06-22T13:09:47.101Z,42.30
2018-06-22T13:12:17.860Z,42.30
2018-06-22T13:14:48.806Z,42.70
2018-06-22T13:17:19.853Z,41.20
2018-06-22T13:19:50.969Z,42.10
2018-06-22T13:22:23.661Z,42.60
2018-06-22T13:24:54.712Z,43.10
2018-06-22T13:27:25.739Z,43.00
2018-06-22T13:29:56.722Z,43.40
2018-06-22T13:32:29.321Z,43.10
2018-06-22T13:35:00.307Z,43.40
2018-06-22T13:37:31.396Z,43.40
2018-06-22T13:40:02.805Z,42.00
2018-06-22T13:42:33.971Z,41.90
2018-06-22T13:45:04.934Z,41.60
2018-06-22T13:47:35.709Z,40.70
2018-06-22T13:52:36.945Z,41.40
2018-06-22T13:55:08.171Z,40.60
2018-06-22T13:57:39.034Z,40.30
2018-06-22T14:00:09.909Z,40.30
2018-06-22T14:05:15.838Z,41.90
2018-06-22T14:07:46.655Z,42.80
2018-06-22T14:10:17.427Z,42.80
2018-06-22T14:12:48.174Z,45.70
2018-06-22T14:15:19.002Z,47.30
2018-06-22T14:17:49.835Z,48.50
2018-06-22T14:20:20.629Z,49.90
2018-06-22T14:22:51.383Z,50.70
2018-06-22T14:25:22.151Z,50.90
2018-06-22T14:27:52.964Z,51.70
2018-06-22T14:30:23.741Z,52.20
2018-06-22T14:32:54.497Z,53.10
2018-06-22T14:37:55.213Z,53.30
2018-06-22T14:40:25.908Z,53.00
2018-06-22T14:42:56.666Z,53.60
2018-06-22T14:45:28.117Z,53.40
2018-06-22T14:47:58.888Z,52.80
2018-06-22T14:50:29.627Z,52.60
2018-06-22T14:53:00.371Z,52.70
2018-06-22T14:55:36.108Z,52.90
2018-06-22T14:58:12.218Z,52.70
2018-06-22T15:00:47.772Z,52.30
2018-06-22T15:05:59.346Z,51.60
2018-06-22T15:08:30.486Z,51.40
2018-06-22T15:11:01.332Z,50.70
2018-06-22T15:13:32.097Z,50.60
2018-06-22T15:16:03.671Z,50.70
2018-06-22T15:18:34.475Z,50.80
2018-06-22T15:21:05.242Z,48.50
2018-06-22T15:23:36.039Z,46.50
2018-06-22T15:26:06.926Z,46.90
2018-06-22T15:28:37.822Z,46.90
2018-06-22T15:31:08.742Z,46.20
2018-06-22T15:33:44.470Z,45.70
2018-06-22T15:36:20.350Z,45.80
2018-06-22T15:38:55.903Z,44.20
2018-06-22T15:41:31.601Z,43.70
2018-06-22T15:44:07.185Z,43.90
2018-06-22T15:46:42.981Z,44.70
2018-06-22T15:49:18.711Z,44.70
2018-06-22T15:51:54.576Z,44.40
2018-06-22T15:54:30.698Z,43.80
2018-06-22T15:57:01.547Z,44.10
2018-06-22T15:59:32.310Z,44.20
2018-06-22T16:02:08.390Z,43.50
2018-06-22T16:04:39.491Z,43.70
2018-06-22T16:07:10.217Z,42.90
2018-06-22T16:09:45.841Z,43.10
2018-06-22T16:12:21.619Z,42.60
2018-06-22T16:14:57.496Z,42.40
2018-06-22T16:17:33.287Z,41.80
2018-06-22T16:20:09.248Z,41.80
2018-06-22T16:22:45.013Z,42.50
2018-06-22T16:25:21.248Z,42.70
2018-06-22T16:32:59.329Z,43.10
2018-06-22T16:35:30.166Z,42.60
2018-06-22T16:38:00.869Z,42.30
2018-06-22T16:40:32.018Z,41.80
2018-06-22T16:45:32.746Z,41.90
2018-06-22T16:48:03.463Z,42.60
2018-06-22T16:50:35.145Z,42.90
2018-06-22T16:53:05.917Z,42.80
2018-06-22T16:58:10.644Z,43.30
2018-06-22T17:00:41.457Z,43.60
2018-06-22T17:03:12.264Z,43.90
2018-06-22T17:05:43.053Z,44.10
2018-06-22T17:08:18.750Z,44.80
2018-06-22T17:10:54.439Z,45.70
2018-06-22T17:16:05.468Z,47.60
2018-06-22T17:18:41.424Z,46.80
2018-06-22T17:21:12.150Z,47.30
2018-06-22T17:23:43.159Z,47.40
2018-06-22T17:26:13.900Z,47.50
2018-06-22T17:28:44.655Z,47.60
2018-06-22T17:31:15.430Z,47.80
2018-06-22T17:33:46.271Z,47.80
2018-06-22T17:36:16.998Z,48.40
2018-06-22T17:38:48.016Z,48.80
2018-06-22T17:41:18.713Z,49.70
2018-06-22T17:43:49.483Z,49.50
2018-06-22T17:46:20.220Z,50.00
2018-06-22T17:48:51.853Z,50.20
2018-06-22T17:51:22.983Z,51.00
2018-06-22T17:53:53.747Z,51.50
2018-06-22T17:56:29.473Z,51.50
2018-06-22T17:59:05.344Z,51.90
2018-06-22T18:01:41.032Z,52.30
2018-06-22T18:04:16.712Z,52.50
2018-06-22T18:06:52.506Z,52.90
2018-06-22T18:09:28.081Z,54.10
2018-06-22T18:12:03.903Z,54.00
2018-06-22T18:14:34.681Z,54.40
2018-06-22T18:19:35.427Z,55.00
2018-06-22T18:22:06.203Z,55.30
2018-06-22T18:24:37.008Z,55.90
2018-06-22T18:29:37.845Z,56.70
2018-06-22T18:32:08.888Z,56.70
2018-06-22T18:34:39.641Z,56.80
2018-06-22T18:37:10.402Z,57.30
2018-06-22T18:39:41.332Z,57.40
2018-06-22T18:44:42.616Z,58.30
2018-06-22T18:49:43.749Z,58.30
2018-06-22T18:52:19.588Z,58.20
2018-06-22T18:54:55.774Z,58.30
2018-06-22T18:57:31.682Z,59.30
2018-06-22T19:00:07.498Z,58.20
2018-06-22T19:05:13.754Z,58.20
2018-06-22T19:07:44.567Z,58.20
2018-06-22T19:10:15.339Z,58.10
2018-06-22T19:12:46.049Z,58.00
2018-06-22T19:15:17.179Z,58.10
2018-06-22T19:17:47.902Z,58.10
2018-06-22T19:20:18.675Z,59.50
2018-06-22T19:22:49.481Z,58.70
2018-06-22T19:25:20.245Z,58.10
2018-06-22T19:27:51.062Z,58.70
2018-06-22T19:30:21.867Z,58.80
2018-06-22T19:35:22.683Z,59.60
2018-06-22T19:37:53.450Z,59.10
2018-06-22T19:40:24.162Z,59.70
2018-06-22T19:42:54.923Z,59.90
2018-06-22T19:45:30.705Z,59.70
2018-06-22T19:48:06.464Z,59.70
2018-06-22T19:50:42.579Z,59.90
2018-06-22T19:55:48.888Z,59.70
2018-06-22T19:58:20.168Z,60.00
2018-06-22T20:00:50.918Z,60.20
2018-06-22T20:03:21.781Z,61.10
2018-06-22T20:05:52.536Z,60.40
2018-06-22T20:08:23.312Z,60.80
2018-06-22T20:10:54.129Z,60.70
2018-06-22T20:13:24.910Z,61.60
2018-06-22T20:15:56.401Z,61.30
2018-06-22T20:18:28.600Z,61.60
2018-06-22T20:23:29.556Z,61.90
2018-06-22T20:28:30.334Z,62.50
2018-06-22T20:31:01.061Z,62.50
2018-06-22T20:36:07.100Z,62.60
2018-06-22T20:38:42.711Z,62.50
2018-06-22T20:41:18.382Z,62.70
2018-06-22T20:43:53.922Z,62.80
2018-06-22T20:49:04.719Z,62.80
2018-06-22T20:51:40.847Z,62.90
2018-06-22T20:54:11.831Z,62.70
2018-06-22T20:56:42.679Z,63.00
2018-06-22T20:59:13.553Z,64.50
2018-06-22T21:01:44.480Z,63.00
2018-06-22T21:04:15.578Z,63.00
2018-06-22T21:06:46.353Z,63.40
2018-06-22T21:09:17.429Z,62.90
2018-06-22T21:11:48.538Z,63.00
2018-06-22T21:14:19.352Z,63.20
2018-06-22T21:16:50.177Z,63.00
2018-06-22T21:19:21.003Z,64.00
2018-06-22T21:21:56.733Z,63.50
2018-06-22T21:24:27.725Z,63.60
2018-06-22T21:27:02.553Z,63.40
2018-06-22T21:29:38.330Z,63.60
2018-06-22T21:32:14.177Z,63.60
2018-06-22T21:35:54.005Z,63.70
2018-06-22T21:38:30.137Z,63.90
2018-06-22T21:41:01.006Z,63.80
2018-06-22T21:43:31.754Z,63.90
2018-06-22T21:48:33.027Z,64.00
2018-06-22T21:53:33.779Z,64.10
2018-06-22T21:58:35.932Z,64.20
2018-06-22T22:03:37.099Z,64.40
2018-06-22T22:06:08.034Z,64.20
2018-06-22T22:08:38.902Z,64.30
2018-06-22T22:11:12.401Z,64.50
2018-06-22T22:13:44.053Z,64.40
2018-06-22T22:16:15.015Z,64.40
2018-06-22T22:18:46.137Z,64.40
2018-06-22T22:21:18.552Z,64.40
2018-06-22T22:23:49.624Z,64.40
2018-06-22T22:26:20.770Z,64.30
2018-06-22T22:28:53.039Z,64.30
2018-06-22T22:31:24.249Z,64.30
2018-06-22T22:33:55.878Z,64.20
2018-06-22T22:36:27.067Z,64.60
2018-06-22T22:38:59.224Z,64.20
2018-06-22T22:44:01.935Z,64.90
2018-06-22T22:49:03.622Z,64.50
2018-06-22T22:54:06.520Z,64.70
2018-06-22T22:56:37.833Z,64.50
2018-06-22T22:59:08.907Z,64.50
2018-06-22T23:01:41.120Z,64.70
2018-06-22T23:04:13.331Z,64.50
2018-06-22T23:06:44.684Z,64.40
2018-06-22T23:09:16.988Z,64.70
2018-06-22T23:11:48.420Z,64.40
2018-06-22T23:14:20.659Z,64.40
2018-06-22T23:16:52.076Z,64.30
2018-06-22T23:19:23.471Z,64.30
2018-06-22T23:21:54.895Z,64.30
2018-06-22T23:24:26.315Z,64.20
2018-06-22T23:26:57.650Z,64.20
2018-06-22T23:29:29.515Z,64.20
2018-06-22T23:32:01.328Z,64.30
2018-06-22T23:34:33.639Z,64.20
2018-06-22T23:37:05.785Z,64.90
2018-06-22T23:39:38.663Z,64.50
2018-06-22T23:42:11.210Z,64.00
2018-06-22T23:44:42.502Z,63.90
2018-06-22T23:47:13.655Z,64.10
2018-06-22T23:49:45.749Z,63.80
2018-06-22T23:54:48.409Z,63.80
2018-06-22T23:57:19.906Z,63.70
2018-06-22T23:59:51.905Z,63.80
